sensor_id;sensor_type;location;lat;lon;timestamp;temperature;humidity
1075;DHT22;526;51.392;12.448;2023-03-01T00:01:33;-2.10;97.30
1075;DHT22;526;51.392;12.448;2023-03-01T00:03:59;-2.10;97.30
1075;DHT22;526;51.392;12.448;2023-03-01T00:06:25;-2.20;97.30
1075;DHT22;526;51.392;12.448;2023-03-01T00:08:51;-2.20;97.30
1075;DHT22;526;51.392;12.448;2023-03-01T00:11:20;-2.20;97.30
1075;DHT22;526;51.392;12.448;2023-03-01T00:13:47;-2.20;97.30
1075;DHT22;526;51.392;12.448;2023-03-01T00:16:20;-2.20;97.30
1075;DHT22;526;51.392;12.448;2023-03-01T00:18:46;-2.20;97.30
1075;DHT22;526;51.392;12.448;2023-03-01T00:21:12;-2.10;97.30
1075;DHT22;526;51.392;12.448;2023-03-01T00:23:38;-2.10;97.30
1075;DHT22;526;51.392;12.448;2023-03-01T00:26:12;-2.10;97.30
1075;DHT22;526;51.392;12.448;2023-03-01T00:28:38;-2.10;97.30
1075;DHT22;526;51.392;12.448;2023-03-01T00:31:08;-2.10;97.30
1075;DHT22;526;51.392;12.448;2023-03-01T00:33:34;-2.10;97.30
1075;DHT22;526;51.392;12.448;2023-03-01T00:36:00;-2.10;97.30
1075;DHT22;526;51.392;12.448;2023-03-01T00:38:26;-2.10;97.30
1075;DHT22;526;51.392;12.448;2023-03-01T00:40:52;-2.10;97.30
1075;DHT22;526;51.392;12.448;2023-03-01T00:43:17;-2.10;97.30
1075;DHT22;526;51.392;12.448;2023-03-01T00:45:43;-2.10;97.30
1075;DHT22;526;51.392;12.448;2023-03-01T00:48:09;-2.20;97.30
1075;DHT22;526;51.392;12.448;2023-03-01T00:50:34;-2.20;97.30
1075;DHT22;526;51.392;12.448;2023-03-01T00:53:00;-2.20;97.30
1075;DHT22;526;51.392;12.448;2023-03-01T00:55:25;-2.20;97.30
1075;DHT22;526;51.392;12.448;2023-03-01T00:57:51;-2.30;97.30
1075;DHT22;526;51.392;12.448;2023-03-01T01:00:18;-2.30;97.30
1075;DHT22;526;51.392;12.448;2023-03-01T01:02:44;-2.30;97.30
1075;DHT22;526;51.392;12.448;2023-03-01T01:05:10;-2.30;97.30
1075;DHT22;526;51.392;12.448;2023-03-01T01:07:36;-2.40;97.30
1075;DHT22;526;51.392;12.448;2023-03-01T01:10:02;-2.40;97.30
1075;DHT22;526;51.392;12.448;2023-03-01T01:12:28;-2.40;97.30
1075;DHT22;526;51.392;12.448;2023-03-01T01:14:53;-2.40;97.30
1075;DHT22;526;51.392;12.448;2023-03-01T01:17:19;-2.40;97.30
1075;DHT22;526;51.392;12.448;2023-03-01T01:19:44;-2.40;97.30
1075;DHT22;526;51.392;12.448;2023-03-01T01:22:10;-2.50;97.30
1075;DHT22;526;51.392;12.448;2023-03-01T01:24:35;-2.50;97.30
1075;DHT22;526;51.392;12.448;2023-03-01T01:27:01;-2.50;97.30
1075;DHT22;526;51.392;12.448;2023-03-01T01:29:27;-2.50;97.30
1075;DHT22;526;51.392;12.448;2023-03-01T01:31:52;-2.50;97.30
1075;DHT22;526;51.392;12.448;2023-03-01T01:34:20;-2.50;97.30
1075;DHT22;526;51.392;12.448;2023-03-01T01:36:51;-2.60;97.30
1075;DHT22;526;51.392;12.448;2023-03-01T01:39:18;-2.60;97.30
1075;DHT22;526;51.392;12.448;2023-03-01T01:41:44;-2.60;97.30
1075;DHT22;526;51.392;12.448;2023-03-01T01:46:53;-2.70;97.30
1075;DHT22;526;51.392;12.448;2023-03-01T01:49:37;-2.70;97.30
1075;DHT22;526;51.392;12.448;2023-03-01T01:52:10;-2.70;97.30
1075;DHT22;526;51.392;12.448;2023-03-01T01:55:06;-2.70;97.30
1075;DHT22;526;51.392;12.448;2023-03-01T01:57:40;-2.70;97.30
1075;DHT22;526;51.392;12.448;2023-03-01T02:00:13;-2.80;97.30
1075;DHT22;526;51.392;12.448;2023-03-01T02:02:40;-2.80;97.30
1075;DHT22;526;51.392;12.448;2023-03-01T02:07:54;-2.80;97.30
1075;DHT22;526;51.392;12.448;2023-03-01T02:10:22;-2.80;97.30
1075;DHT22;526;51.392;12.448;2023-03-01T02:12:49;-2.80;97.30
1075;DHT22;526;51.392;12.448;2023-03-01T02:15:14;-2.80;97.30
1075;DHT22;526;51.392;12.448;2023-03-01T02:17:40;-2.80;97.30
1075;DHT22;526;51.392;12.448;2023-03-01T02:20:38;-2.80;97.30
1075;DHT22;526;51.392;12.448;2023-03-01T02:23:06;-2.80;97.30
1075;DHT22;526;51.392;12.448;2023-03-01T02:25:51;-2.80;97.30
1075;DHT22;526;51.392;12.448;2023-03-01T02:28:25;-2.80;97.30
1075;DHT22;526;51.392;12.448;2023-03-01T02:30:51;-2.80;97.30
1075;DHT22;526;51.392;12.448;2023-03-01T02:33:38;-2.90;97.30
1075;DHT22;526;51.392;12.448;2023-03-01T02:36:08;-2.90;97.30
1075;DHT22;526;51.392;12.448;2023-03-01T02:38:34;-2.90;97.30
1075;DHT22;526;51.392;12.448;2023-03-01T02:41:00;-3.00;97.30
1075;DHT22;526;51.392;12.448;2023-03-01T02:43:31;-3.00;97.30
1075;DHT22;526;51.392;12.448;2023-03-01T02:45:59;-3.00;97.30
1075;DHT22;526;51.392;12.448;2023-03-01T02:48:27;-3.10;97.30
1075;DHT22;526;51.392;12.448;2023-03-01T02:51:03;-3.10;97.30
1075;DHT22;526;51.392;12.448;2023-03-01T02:56:36;-3.10;97.30
1075;DHT22;526;51.392;12.448;2023-03-01T02:59:04;-3.10;97.30
1075;DHT22;526;51.392;12.448;2023-03-01T03:01:30;-3.10;97.30
1075;DHT22;526;51.392;12.448;2023-03-01T03:04:11;-3.20;97.30
1075;DHT22;526;51.392;12.448;2023-03-01T03:06:45;-3.20;97.30
1075;DHT22;526;51.392;12.448;2023-03-01T03:09:19;-3.20;97.30
1075;DHT22;526;51.392;12.448;2023-03-01T03:11:48;-3.20;97.30
1075;DHT22;526;51.392;12.448;2023-03-01T03:14:16;-3.10;97.30
1075;DHT22;526;51.392;12.448;2023-03-01T03:16:43;-3.10;97.30
1075;DHT22;526;51.392;12.448;2023-03-01T03:19:09;-3.20;97.30
1075;DHT22;526;51.392;12.448;2023-03-01T03:21:35;-3.20;97.30
1075;DHT22;526;51.392;12.448;2023-03-01T03:24:01;-3.20;97.30
1075;DHT22;526;51.392;12.448;2023-03-01T03:26:30;-3.20;97.30
1075;DHT22;526;51.392;12.448;2023-03-01T03:28:56;-3.20;97.30
1075;DHT22;526;51.392;12.448;2023-03-01T03:31:22;-3.20;97.30
1075;DHT22;526;51.392;12.448;2023-03-01T03:33:47;-3.20;97.30
1075;DHT22;526;51.392;12.448;2023-03-01T03:36:21;-3.20;97.30
1075;DHT22;526;51.392;12.448;2023-03-01T03:38:47;-3.20;97.30
1075;DHT22;526;51.392;12.448;2023-03-01T03:41:14;-3.20;97.30
1075;DHT22;526;51.392;12.448;2023-03-01T03:43:41;-3.20;97.30
1075;DHT22;526;51.392;12.448;2023-03-01T03:46:08;-3.30;97.30
1075;DHT22;526;51.392;12.448;2023-03-01T03:48:45;-3.30;97.30
1075;DHT22;526;51.392;12.448;2023-03-01T03:51:15;-3.40;97.30
1075;DHT22;526;51.392;12.448;2023-03-01T03:53:42;-3.40;97.30
1075;DHT22;526;51.392;12.448;2023-03-01T03:56:07;-3.40;97.30
1075;DHT22;526;51.392;12.448;2023-03-01T03:58:33;-3.40;97.30
1075;DHT22;526;51.392;12.448;2023-03-01T04:01:00;-3.40;97.30
1075;DHT22;526;51.392;12.448;2023-03-01T04:03:29;-3.40;97.30
1075;DHT22;526;51.392;12.448;2023-03-01T04:05:57;-3.50;97.30
1075;DHT22;526;51.392;12.448;2023-03-01T04:08:24;-3.50;97.30
1075;DHT22;526;51.392;12.448;2023-03-01T04:10:51;-3.50;97.30
1075;DHT22;526;51.392;12.448;2023-03-01T04:13:19;-3.50;97.30
1075;DHT22;526;51.392;12.448;2023-03-01T04:15:48;-3.50;97.30
1075;DHT22;526;51.392;12.448;2023-03-01T04:18:14;-3.50;97.30
1075;DHT22;526;51.392;12.448;2023-03-01T04:20:41;-3.50;97.30
1075;DHT22;526;51.392;12.448;2023-03-01T04:23:10;-3.60;97.30
1075;DHT22;526;51.392;12.448;2023-03-01T04:25:39;-3.50;97.30
1075;DHT22;526;51.392;12.448;2023-03-01T04:28:06;-3.50;97.30
1075;DHT22;526;51.392;12.448;2023-03-01T04:30:32;-3.50;97.30
1075;DHT22;526;51.392;12.448;2023-03-01T04:33:10;-3.50;97.30
1075;DHT22;526;51.392;12.448;2023-03-01T04:35:36;-3.50;97.30
1075;DHT22;526;51.392;12.448;2023-03-01T04:38:03;-3.50;97.30
1075;DHT22;526;51.392;12.448;2023-03-01T04:40:29;-3.50;97.30
1075;DHT22;526;51.392;12.448;2023-03-01T04:42:54;-3.50;97.30
1075;DHT22;526;51.392;12.448;2023-03-01T04:45:23;-3.50;97.30
1075;DHT22;526;51.392;12.448;2023-03-01T04:47:48;-3.50;97.30
1075;DHT22;526;51.392;12.448;2023-03-01T04:50:16;-3.50;97.30
1075;DHT22;526;51.392;12.448;2023-03-01T04:52:43;-3.50;97.30
1075;DHT22;526;51.392;12.448;2023-03-01T04:55:09;-3.40;97.30
1075;DHT22;526;51.392;12.448;2023-03-01T04:57:34;-3.40;97.30
1075;DHT22;526;51.392;12.448;2023-03-01T05:00:00;-3.40;97.30
1075;DHT22;526;51.392;12.448;2023-03-01T05:02:26;-3.40;97.30
1075;DHT22;526;51.392;12.448;2023-03-01T05:04:51;-3.40;97.30
1075;DHT22;526;51.392;12.448;2023-03-01T05:07:17;-3.40;97.30
1075;DHT22;526;51.392;12.448;2023-03-01T05:09:46;-3.30;97.30
1075;DHT22;526;51.392;12.448;2023-03-01T05:12:12;-3.30;97.30
1075;DHT22;526;51.392;12.448;2023-03-01T05:14:38;-3.40;97.30
1075;DHT22;526;51.392;12.448;2023-03-01T05:17:04;-3.30;97.30
1075;DHT22;526;51.392;12.448;2023-03-01T05:19:33;-3.30;97.30
1075;DHT22;526;51.392;12.448;2023-03-01T05:21:59;-3.30;97.30
1075;DHT22;526;51.392;12.448;2023-03-01T05:24:30;-3.30;97.30
1075;DHT22;526;51.392;12.448;2023-03-01T05:26:56;-3.30;97.30
1075;DHT22;526;51.392;12.448;2023-03-01T05:29:23;-3.30;97.30
1075;DHT22;526;51.392;12.448;2023-03-01T05:31:59;-3.30;97.30
1075;DHT22;526;51.392;12.448;2023-03-01T05:34:28;-3.30;97.30
1075;DHT22;526;51.392;12.448;2023-03-01T05:36:54;-3.30;97.30
1075;DHT22;526;51.392;12.448;2023-03-01T05:39:26;-3.30;97.30
1075;DHT22;526;51.392;12.448;2023-03-01T05:41:53;-3.30;97.30
1075;DHT22;526;51.392;12.448;2023-03-01T05:44:19;-3.40;97.30
1075;DHT22;526;51.392;12.448;2023-03-01T05:46:45;-3.30;97.30
1075;DHT22;526;51.392;12.448;2023-03-01T05:49:12;-3.30;97.30
1075;DHT22;526;51.392;12.448;2023-03-01T05:51:39;-3.30;97.30
1075;DHT22;526;51.392;12.448;2023-03-01T05:54:04;-3.40;97.30
1075;DHT22;526;51.392;12.448;2023-03-01T05:56:32;-3.40;97.30
1075;DHT22;526;51.392;12.448;2023-03-01T05:58:58;-3.40;97.30
1075;DHT22;526;51.392;12.448;2023-03-01T06:01:23;-3.40;97.30
1075;DHT22;526;51.392;12.448;2023-03-01T06:03:49;-3.40;97.30
1075;DHT22;526;51.392;12.448;2023-03-01T06:06:14;-3.40;97.30
1075;DHT22;526;51.392;12.448;2023-03-01T06:08:40;-3.40;97.30
1075;DHT22;526;51.392;12.448;2023-03-01T06:11:05;-3.40;97.30
1075;DHT22;526;51.392;12.448;2023-03-01T06:13:33;-3.40;97.30
1075;DHT22;526;51.392;12.448;2023-03-01T06:15:59;-3.40;97.30
1075;DHT22;526;51.392;12.448;2023-03-01T06:18:48;-3.40;97.30
1075;DHT22;526;51.392;12.448;2023-03-01T06:21:19;-3.40;97.30
1075;DHT22;526;51.392;12.448;2023-03-01T06:23:50;-3.40;97.30
1075;DHT22;526;51.392;12.448;2023-03-01T06:26:17;-3.40;97.30
1075;DHT22;526;51.392;12.448;2023-03-01T06:28:49;-3.40;97.30
1075;DHT22;526;51.392;12.448;2023-03-01T06:34:50;-3.30;97.30
1075;DHT22;526;51.392;12.448;2023-03-01T06:37:28;-3.30;97.30
1075;DHT22;526;51.392;12.448;2023-03-01T06:39:56;-3.20;97.30
1075;DHT22;526;51.392;12.448;2023-03-01T06:42:37;-3.20;97.30
1075;DHT22;526;51.392;12.448;2023-03-01T06:45:26;-3.20;97.30
1075;DHT22;526;51.392;12.448;2023-03-01T06:47:51;-3.10;97.30
1075;DHT22;526;51.392;12.448;2023-03-01T06:50:17;-3.10;97.30
1075;DHT22;526;51.392;12.448;2023-03-01T06:52:48;-3.00;97.30
1075;DHT22;526;51.392;12.448;2023-03-01T06:55:37;-3.00;97.30
1075;DHT22;526;51.392;12.448;2023-03-01T06:58:06;-2.90;97.30
1075;DHT22;526;51.392;12.448;2023-03-01T07:00:39;-2.90;97.30
1075;DHT22;526;51.392;12.448;2023-03-01T07:03:08;-2.80;97.30
1075;DHT22;526;51.392;12.448;2023-03-01T07:05:34;-2.70;97.30
1075;DHT22;526;51.392;12.448;2023-03-01T07:07:59;-2.60;97.30
1075;DHT22;526;51.392;12.448;2023-03-01T07:10:28;-2.50;97.30
1075;DHT22;526;51.392;12.448;2023-03-01T07:12:57;-2.50;97.30
1075;DHT22;526;51.392;12.448;2023-03-01T07:15:33;-2.40;97.30
1075;DHT22;526;51.392;12.448;2023-03-01T07:17:59;-2.30;97.30
1075;DHT22;526;51.392;12.448;2023-03-01T07:20:28;-2.20;97.30
1075;DHT22;526;51.392;12.448;2023-03-01T07:23:02;-2.20;97.30
1075;DHT22;526;51.392;12.448;2023-03-01T07:25:28;-2.10;97.30
1075;DHT22;526;51.392;12.448;2023-03-01T07:27:56;-2.00;97.30
1075;DHT22;526;51.392;12.448;2023-03-01T07:30:22;-1.90;97.30
1075;DHT22;526;51.392;12.448;2023-03-01T07:32:47;-1.90;97.30
1075;DHT22;526;51.392;12.448;2023-03-01T07:35:17;-1.80;97.30
1075;DHT22;526;51.392;12.448;2023-03-01T07:37:43;-1.70;97.30
1075;DHT22;526;51.392;12.448;2023-03-01T07:40:10;-1.60;97.30
1075;DHT22;526;51.392;12.448;2023-03-01T07:42:36;-1.60;97.30
1075;DHT22;526;51.392;12.448;2023-03-01T07:45:01;-1.50;97.30
1075;DHT22;526;51.392;12.448;2023-03-01T07:47:27;-1.40;97.30
1075;DHT22;526;51.392;12.448;2023-03-01T07:49:52;-1.30;97.30
1075;DHT22;526;51.392;12.448;2023-03-01T07:52:18;-1.20;97.30
1075;DHT22;526;51.392;12.448;2023-03-01T07:54:43;-1.20;97.30
1075;DHT22;526;51.392;12.448;2023-03-01T07:57:11;-1.00;97.30
1075;DHT22;526;51.392;12.448;2023-03-01T07:59:37;-0.90;97.30
1075;DHT22;526;51.392;12.448;2023-03-01T08:02:03;-0.90;97.30
1075;DHT22;526;51.392;12.448;2023-03-01T08:04:28;-0.80;97.30
1075;DHT22;526;51.392;12.448;2023-03-01T08:06:55;-0.70;97.30
1075;DHT22;526;51.392;12.448;2023-03-01T08:09:20;-0.60;97.30
1075;DHT22;526;51.392;12.448;2023-03-01T08:11:46;-0.50;97.30
1075;DHT22;526;51.392;12.448;2023-03-01T08:14:12;-0.40;97.30
1075;DHT22;526;51.392;12.448;2023-03-01T08:16:37;-0.30;97.30
1075;DHT22;526;51.392;12.448;2023-03-01T08:19:07;-0.20;97.30
1075;DHT22;526;51.392;12.448;2023-03-01T08:21:33;-0.20;97.30
1075;DHT22;526;51.392;12.448;2023-03-01T08:24:01;-0.10;97.30
1075;DHT22;526;51.392;12.448;2023-03-01T08:26:26;0.00;97.30
1075;DHT22;526;51.392;12.448;2023-03-01T08:28:52;0.00;97.30
1075;DHT22;526;51.392;12.448;2023-03-01T08:31:25;0.10;97.30
1075;DHT22;526;51.392;12.448;2023-03-01T08:33:54;0.20;97.30
1075;DHT22;526;51.392;12.448;2023-03-01T08:36:33;0.30;97.30
1075;DHT22;526;51.392;12.448;2023-03-01T08:39:00;0.40;97.30
1075;DHT22;526;51.392;12.448;2023-03-01T08:41:26;0.40;97.30
1075;DHT22;526;51.392;12.448;2023-03-01T08:43:52;0.50;97.30
1075;DHT22;526;51.392;12.448;2023-03-01T08:46:18;0.60;97.30
1075;DHT22;526;51.392;12.448;2023-03-01T08:48:43;0.70;97.30
1075;DHT22;526;51.392;12.448;2023-03-01T08:51:16;0.80;97.30
1075;DHT22;526;51.392;12.448;2023-03-01T08:53:42;1.00;97.30
1075;DHT22;526;51.392;12.448;2023-03-01T08:56:08;1.10;97.30
1075;DHT22;526;51.392;12.448;2023-03-01T08:58:34;1.20;97.30
1075;DHT22;526;51.392;12.448;2023-03-01T09:01:00;1.20;97.30
1075;DHT22;526;51.392;12.448;2023-03-01T09:03:26;1.30;97.30
1075;DHT22;526;51.392;12.448;2023-03-01T09:05:52;1.30;97.30
1075;DHT22;526;51.392;12.448;2023-03-01T09:08:18;1.40;97.30
1075;DHT22;526;51.392;12.448;2023-03-01T09:10:44;1.40;97.30
1075;DHT22;526;51.392;12.448;2023-03-01T09:13:10;1.50;97.30
1075;DHT22;526;51.392;12.448;2023-03-01T09:15:38;1.60;97.30
1075;DHT22;526;51.392;12.448;2023-03-01T09:18:04;1.70;97.30
1075;DHT22;526;51.392;12.448;2023-03-01T09:20:31;1.70;97.30
1075;DHT22;526;51.392;12.448;2023-03-01T09:22:57;1.80;97.30
1075;DHT22;526;51.392;12.448;2023-03-01T09:25:22;1.90;97.30
1075;DHT22;526;51.392;12.448;2023-03-01T09:27:51;1.90;97.30
1075;DHT22;526;51.392;12.448;2023-03-01T09:30:17;2.00;97.30
1075;DHT22;526;51.392;12.448;2023-03-01T09:32:42;2.10;97.30
1075;DHT22;526;51.392;12.448;2023-03-01T09:35:11;2.10;97.30
1075;DHT22;526;51.392;12.448;2023-03-01T09:37:37;2.20;97.30
1075;DHT22;526;51.392;12.448;2023-03-01T09:40:05;2.30;97.30
1075;DHT22;526;51.392;12.448;2023-03-01T09:42:35;2.40;97.30
1075;DHT22;526;51.392;12.448;2023-03-01T09:45:27;2.60;97.30
1075;DHT22;526;51.392;12.448;2023-03-01T09:47:54;2.70;97.30
1075;DHT22;526;51.392;12.448;2023-03-01T09:50:21;2.90;97.30
1075;DHT22;526;51.392;12.448;2023-03-01T09:55:36;3.10;97.30
1075;DHT22;526;51.392;12.448;2023-03-01T10:01:23;3.10;96.50
1075;DHT22;526;51.392;12.448;2023-03-01T10:04:27;3.20;96.60
1075;DHT22;526;51.392;12.448;2023-03-01T10:09:30;3.40;95.80
1075;DHT22;526;51.392;12.448;2023-03-01T10:11:58;3.40;95.40
1075;DHT22;526;51.392;12.448;2023-03-01T10:14:43;3.50;95.60
1075;DHT22;526;51.392;12.448;2023-03-01T10:17:26;3.70;95.00
1075;DHT22;526;51.392;12.448;2023-03-01T10:19:52;3.80;94.40
1075;DHT22;526;51.392;12.448;2023-03-01T10:22:26;3.90;93.70
1075;DHT22;526;51.392;12.448;2023-03-01T10:24:55;4.00;93.50
1075;DHT22;526;51.392;12.448;2023-03-01T10:27:24;4.10;93.50
1075;DHT22;526;51.392;12.448;2023-03-01T10:30:16;4.30;94.00
1075;DHT22;526;51.392;12.448;2023-03-01T10:32:44;4.40;92.10
1075;DHT22;526;51.392;12.448;2023-03-01T10:35:21;4.40;92.00
1075;DHT22;526;51.392;12.448;2023-03-01T10:38:03;4.40;91.80
1075;DHT22;526;51.392;12.448;2023-03-01T10:40:30;4.50;91.50
1075;DHT22;526;51.392;12.448;2023-03-01T10:42:58;4.50;91.30
1075;DHT22;526;51.392;12.448;2023-03-01T10:45:39;4.60;91.90
1075;DHT22;526;51.392;12.448;2023-03-01T10:48:12;4.80;91.80
1075;DHT22;526;51.392;12.448;2023-03-01T10:50:39;4.90;91.30
1075;DHT22;526;51.392;12.448;2023-03-01T10:55:44;5.10;90.50
1075;DHT22;526;51.392;12.448;2023-03-01T10:58:21;5.10;90.30
1075;DHT22;526;51.392;12.448;2023-03-01T11:03:29;5.00;89.40
1075;DHT22;526;51.392;12.448;2023-03-01T11:11:17;5.20;89.90
1075;DHT22;526;51.392;12.448;2023-03-01T11:13:54;5.20;89.20
1075;DHT22;526;51.392;12.448;2023-03-01T11:16:35;5.20;88.90
1075;DHT22;526;51.392;12.448;2023-03-01T11:19:15;5.20;89.10
1075;DHT22;526;51.392;12.448;2023-03-01T11:24:14;5.30;88.90
1075;DHT22;526;51.392;12.448;2023-03-01T11:26:44;5.40;88.70
1075;DHT22;526;51.392;12.448;2023-03-01T11:29:27;5.40;87.60
1075;DHT22;526;51.392;12.448;2023-03-01T11:31:58;5.40;87.70
1075;DHT22;526;51.392;12.448;2023-03-01T11:37:03;5.70;87.40
1075;DHT22;526;51.392;12.448;2023-03-01T11:39:49;5.80;87.20
1075;DHT22;526;51.392;12.448;2023-03-01T11:42:48;5.80;86.90
1075;DHT22;526;51.392;12.448;2023-03-01T11:45:15;5.90;87.00
1075;DHT22;526;51.392;12.448;2023-03-01T11:53:11;6.20;87.60
1075;DHT22;526;51.392;12.448;2023-03-01T11:56:05;6.20;86.40
1075;DHT22;526;51.392;12.448;2023-03-01T12:05:47;6.40;85.30
1075;DHT22;526;51.392;12.448;2023-03-01T12:08:08;6.50;84.90
1075;DHT22;526;51.392;12.448;2023-03-01T12:15:54;6.90;83.60
1075;DHT22;526;51.392;12.448;2023-03-01T12:18:30;7.00;82.50
1075;DHT22;526;51.392;12.448;2023-03-01T12:29:15;7.40;84.10
1075;DHT22;526;51.392;12.448;2023-03-01T12:34:33;7.70;82.80
1075;DHT22;526;51.392;12.448;2023-03-01T12:40:22;7.80;82.40
1075;DHT22;526;51.392;12.448;2023-03-01T12:45:50;8.20;81.90
1075;DHT22;526;51.392;12.448;2023-03-01T12:51:06;8.60;81.30
1075;DHT22;526;51.392;12.448;2023-03-01T12:54:01;8.70;81.40
1075;DHT22;526;51.392;12.448;2023-03-01T12:56:32;8.80;81.00
1075;DHT22;526;51.392;12.448;2023-03-01T12:59:15;9.00;79.20
1075;DHT22;526;51.392;12.448;2023-03-01T13:04:45;9.10;80.20
1075;DHT22;526;51.392;12.448;2023-03-01T13:07:24;9.10;79.30
1075;DHT22;526;51.392;12.448;2023-03-01T13:13:00;9.10;78.30
1075;DHT22;526;51.392;12.448;2023-03-01T13:15:31;9.30;77.80
1075;DHT22;526;51.392;12.448;2023-03-01T13:18:27;9.50;78.60
1075;DHT22;526;51.392;12.448;2023-03-01T13:20:52;9.60;76.60
1075;DHT22;526;51.392;12.448;2023-03-01T13:31:55;9.20;75.50
1075;DHT22;526;51.392;12.448;2023-03-01T13:34:00;9.30;75.10
1075;DHT22;526;51.392;12.448;2023-03-01T13:46:58;9.70;72.20
1075;DHT22;526;51.392;12.448;2023-03-01T13:49:33;9.70;71.30
1075;DHT22;526;51.392;12.448;2023-03-01T13:52:02;9.70;70.10
1075;DHT22;526;51.392;12.448;2023-03-01T13:54:31;9.60;69.30
1075;DHT22;526;51.392;12.448;2023-03-01T13:56:59;9.60;69.50
1075;DHT22;526;51.392;12.448;2023-03-01T13:59:25;9.70;70.50
1075;DHT22;526;51.392;12.448;2023-03-01T14:01:53;9.80;70.10
1075;DHT22;526;51.392;12.448;2023-03-01T14:04:31;10.00;70.90
1075;DHT22;526;51.392;12.448;2023-03-01T14:07:20;10.30;70.50
1075;DHT22;526;51.392;12.448;2023-03-01T14:09:53;10.70;70.00
1075;DHT22;526;51.392;12.448;2023-03-01T14:12:39;10.70;68.50
1075;DHT22;526;51.392;12.448;2023-03-01T14:15:37;10.60;68.60
1075;DHT22;526;51.392;12.448;2023-03-01T14:18:14;10.70;69.10
1075;DHT22;526;51.392;12.448;2023-03-01T14:20:44;10.80;69.40
1075;DHT22;526;51.392;12.448;2023-03-01T14:23:22;10.80;69.90
1075;DHT22;526;51.392;12.448;2023-03-01T14:25:53;10.90;68.70
1075;DHT22;526;51.392;12.448;2023-03-01T14:28:28;11.10;68.90
1075;DHT22;526;51.392;12.448;2023-03-01T14:30:56;11.20;68.80
1075;DHT22;526;51.392;12.448;2023-03-01T14:36:05;11.30;67.70
1075;DHT22;526;51.392;12.448;2023-03-01T14:38:41;11.30;68.70
1075;DHT22;526;51.392;12.448;2023-03-01T14:41:09;11.40;68.20
1075;DHT22;526;51.392;12.448;2023-03-01T14:43:36;11.30;68.60
1075;DHT22;526;51.392;12.448;2023-03-01T14:46:02;11.40;68.20
1075;DHT22;526;51.392;12.448;2023-03-01T14:48:29;11.50;67.90
1075;DHT22;526;51.392;12.448;2023-03-01T14:50:55;11.40;67.40
1075;DHT22;526;51.392;12.448;2023-03-01T14:53:25;11.20;67.20
1075;DHT22;526;51.392;12.448;2023-03-01T14:55:59;10.90;67.80
1075;DHT22;526;51.392;12.448;2023-03-01T14:58:27;11.00;68.80
1075;DHT22;526;51.392;12.448;2023-03-01T15:00:59;11.30;68.80
1075;DHT22;526;51.392;12.448;2023-03-01T15:03:37;11.40;68.40
1075;DHT22;526;51.392;12.448;2023-03-01T15:06:05;11.40;68.20
1075;DHT22;526;51.392;12.448;2023-03-01T15:08:31;11.40;68.00
1075;DHT22;526;51.392;12.448;2023-03-01T15:11:22;11.60;67.60
1075;DHT22;526;51.392;12.448;2023-03-01T15:13:50;11.60;67.40
1075;DHT22;526;51.392;12.448;2023-03-01T15:16:24;11.50;67.20
1075;DHT22;526;51.392;12.448;2023-03-01T15:18:56;11.70;67.80
1075;DHT22;526;51.392;12.448;2023-03-01T15:21:27;11.90;67.80
1075;DHT22;526;51.392;12.448;2023-03-01T15:26:56;11.60;65.70
1075;DHT22;526;51.392;12.448;2023-03-01T15:29:26;11.40;66.90
1075;DHT22;526;51.392;12.448;2023-03-01T15:32:04;11.60;67.30
1075;DHT22;526;51.392;12.448;2023-03-01T15:34:35;11.90;66.80
1075;DHT22;526;51.392;12.448;2023-03-01T15:37:04;11.60;66.00
1075;DHT22;526;51.392;12.448;2023-03-01T15:39:42;11.50;66.40
1075;DHT22;526;51.392;12.448;2023-03-01T15:42:36;11.50;66.70
1075;DHT22;526;51.392;12.448;2023-03-01T15:45:10;11.70;66.70
1075;DHT22;526;51.392;12.448;2023-03-01T15:47:36;11.70;66.20
1075;DHT22;526;51.392;12.448;2023-03-01T15:50:03;11.80;66.50
1075;DHT22;526;51.392;12.448;2023-03-01T15:52:40;12.10;67.00
1075;DHT22;526;51.392;12.448;2023-03-01T15:55:18;12.30;66.20
1075;DHT22;526;51.392;12.448;2023-03-01T15:57:44;12.20;65.70
1075;DHT22;526;51.392;12.448;2023-03-01T16:00:11;11.90;65.80
1075;DHT22;526;51.392;12.448;2023-03-01T16:02:41;12.00;65.90
1075;DHT22;526;51.392;12.448;2023-03-01T16:05:32;12.20;66.20
1075;DHT22;526;51.392;12.448;2023-03-01T16:07:58;12.40;65.80
1075;DHT22;526;51.392;12.448;2023-03-01T16:10:24;12.50;65.40
1075;DHT22;526;51.392;12.448;2023-03-01T16:12:51;12.50;65.20
1075;DHT22;526;51.392;12.448;2023-03-01T16:17:48;12.40;65.40
1075;DHT22;526;51.392;12.448;2023-03-01T16:20:14;12.00;65.80
1075;DHT22;526;51.392;12.448;2023-03-01T16:22:43;11.20;66.30
1075;DHT22;526;51.392;12.448;2023-03-01T16:25:14;10.40;67.90
1075;DHT22;526;51.392;12.448;2023-03-01T16:27:42;9.60;69.50
1075;DHT22;526;51.392;12.448;2023-03-01T16:30:08;9.10;70.60
1075;DHT22;526;51.392;12.448;2023-03-01T16:32:41;8.60;71.60
1075;DHT22;526;51.392;12.448;2023-03-01T16:35:08;8.30;72.40
1075;DHT22;526;51.392;12.448;2023-03-01T16:37:35;8.00;73.00
1075;DHT22;526;51.392;12.448;2023-03-01T16:40:02;7.80;73.80
1075;DHT22;526;51.392;12.448;2023-03-01T16:42:33;7.60;74.40
1075;DHT22;526;51.392;12.448;2023-03-01T16:44:59;7.30;75.10
1075;DHT22;526;51.392;12.448;2023-03-01T16:47:24;7.10;75.80
1075;DHT22;526;51.392;12.448;2023-03-01T16:49:53;6.90;76.50
1075;DHT22;526;51.392;12.448;2023-03-01T16:52:22;6.70;76.80
1075;DHT22;526;51.392;12.448;2023-03-01T16:54:47;6.50;77.20
1075;DHT22;526;51.392;12.448;2023-03-01T16:57:13;6.40;77.60
1075;DHT22;526;51.392;12.448;2023-03-01T16:59:39;6.20;78.00
1075;DHT22;526;51.392;12.448;2023-03-01T17:02:05;6.10;78.40
1075;DHT22;526;51.392;12.448;2023-03-01T17:04:34;5.90;79.20
1075;DHT22;526;51.392;12.448;2023-03-01T17:07:02;5.70;79.60
1075;DHT22;526;51.392;12.448;2023-03-01T17:09:30;5.60;80.10
1075;DHT22;526;51.392;12.448;2023-03-01T17:12:03;5.50;80.10
1075;DHT22;526;51.392;12.448;2023-03-01T17:14:32;5.40;80.30
1075;DHT22;526;51.392;12.448;2023-03-01T17:17:02;5.20;80.70
1075;DHT22;526;51.392;12.448;2023-03-01T17:19:51;5.10;80.90
1075;DHT22;526;51.392;12.448;2023-03-01T17:22:20;5.00;80.90
1075;DHT22;526;51.392;12.448;2023-03-01T17:24:51;4.90;81.10
1075;DHT22;526;51.392;12.448;2023-03-01T17:27:25;4.70;81.10
1075;DHT22;526;51.392;12.448;2023-03-01T17:29:53;4.60;81.30
1075;DHT22;526;51.392;12.448;2023-03-01T17:32:21;4.50;81.60
1075;DHT22;526;51.392;12.448;2023-03-01T17:34:52;4.40;81.70
1075;DHT22;526;51.392;12.448;2023-03-01T17:37:24;4.30;81.80
1075;DHT22;526;51.392;12.448;2023-03-01T17:39:53;4.30;81.80
1075;DHT22;526;51.392;12.448;2023-03-01T17:42:36;4.20;82.00
1075;DHT22;526;51.392;12.448;2023-03-01T17:45:12;4.20;82.30
1075;DHT22;526;51.392;12.448;2023-03-01T17:47:52;4.20;82.60
1075;DHT22;526;51.392;12.448;2023-03-01T17:50:25;4.20;82.80
1075;DHT22;526;51.392;12.448;2023-03-01T17:53:14;4.10;82.80
1075;DHT22;526;51.392;12.448;2023-03-01T17:55:43;4.10;83.10
1075;DHT22;526;51.392;12.448;2023-03-01T17:58:14;4.00;83.30
1075;DHT22;526;51.392;12.448;2023-03-01T18:00:43;4.00;83.60
1075;DHT22;526;51.392;12.448;2023-03-01T18:03:12;3.90;83.50
1075;DHT22;526;51.392;12.448;2023-03-01T18:08:42;3.70;83.70
1075;DHT22;526;51.392;12.448;2023-03-01T18:11:13;3.60;84.30
1075;DHT22;526;51.392;12.448;2023-03-01T18:13:41;3.50;84.30
1075;DHT22;526;51.392;12.448;2023-03-01T18:16:14;3.40;84.50